sensor_id;sensor_type;location;lat;lon;timestamp;P1;durP1;ratioP1;P2;durP2;ratioP2
51578;SDS011;47998;53.242;6.386;2023-08-01T00:00:47;21.85;;;6.20;;
51578;SDS011;47998;53.242;6.386;2023-08-01T00:03:13;16.25;;;5.88;;
51578;SDS011;47998;53.242;6.386;2023-08-01T00:05:39;15.73;;;6.15;;
51578;SDS011;47998;53.242;6.386;2023-08-01T00:08:10;18.52;;;5.53;;
51578;SDS011;47998;53.242;6.386;2023-08-01T00:10:37;17.27;;;6.45;;
51578;SDS011;47998;53.242;6.386;2023-08-01T00:13:03;19.58;;;6.15;;
51578;SDS011;47998;53.242;6.386;2023-08-01T00:15:29;12.70;;;5.30;;
51578;SDS011;47998;53.242;6.386;2023-08-01T00:17:55;18.95;;;5.10;;
51578;SDS011;47998;53.242;6.386;2023-08-01T00:20:20;18.50;;;5.53;;
51578;SDS011;47998;53.242;6.386;2023-08-01T00:22:46;14.25;;;4.60;;
51578;SDS011;47998;53.242;6.386;2023-08-01T00:25:12;10.30;;;5.13;;
51578;SDS011;47998;53.242;6.386;2023-08-01T00:27:38;17.17;;;5.70;;
51578;SDS011;47998;53.242;6.386;2023-08-01T00:30:04;14.63;;;5.18;;
51578;SDS011;47998;53.242;6.386;2023-08-01T00:32:31;14.43;;;6.53;;
51578;SDS011;47998;53.242;6.386;2023-08-01T00:34:56;14.07;;;4.80;;
51578;SDS011;47998;53.242;6.386;2023-08-01T00:37:22;9.18;;;4.55;;
51578;SDS011;47998;53.242;6.386;2023-08-01T00:39:48;14.10;;;5.22;;
51578;SDS011;47998;53.242;6.386;2023-08-01T00:42:14;11.57;;;5.68;;
51578;SDS011;47998;53.242;6.386;2023-08-01T00:44:41;12.18;;;5.15;;
51578;SDS011;47998;53.242;6.386;2023-08-01T00:47:08;13.43;;;6.03;;
51578;SDS011;47998;53.242;6.386;2023-08-01T00:49:34;11.65;;;5.45;;
51578;SDS011;47998;53.242;6.386;2023-08-01T00:52:00;13.73;;;5.88;;
51578;SDS011;47998;53.242;6.386;2023-08-01T00:54:26;9.80;;;4.90;;
51578;SDS011;47998;53.242;6.386;2023-08-01T00:56:52;13.25;;;5.97;;
51578;SDS011;47998;53.242;6.386;2023-08-01T00:59:18;12.18;;;5.50;;
51578;SDS011;47998;53.242;6.386;2023-08-01T01:01:44;20.25;;;7.07;;
51578;SDS011;47998;53.242;6.386;2023-08-01T01:04:10;11.15;;;5.57;;
51578;SDS011;47998;53.242;6.386;2023-08-01T01:06:41;20.58;;;6.47;;
51578;SDS011;47998;53.242;6.386;2023-08-01T01:11:44;14.60;;;5.97;;
51578;SDS011;47998;53.242;6.386;2023-08-01T01:14:10;15.98;;;6.35;;
51578;SDS011;47998;53.242;6.386;2023-08-01T01:16:36;22.77;;;7.15;;
51578;SDS011;47998;53.242;6.386;2023-08-01T01:19:05;18.30;;;6.72;;
51578;SDS011;47998;53.242;6.386;2023-08-01T01:21:35;11.45;;;6.03;;
51578;SDS011;47998;53.242;6.386;2023-08-01T01:24:04;14.35;;;6.68;;
51578;SDS011;47998;53.242;6.386;2023-08-01T01:26:33;20.65;;;6.70;;
51578;SDS011;47998;53.242;6.386;2023-08-01T01:28:59;12.38;;;6.25;;
51578;SDS011;47998;53.242;6.386;2023-08-01T01:31:27;14.50;;;6.10;;
51578;SDS011;47998;53.242;6.386;2023-08-01T01:33:54;14.25;;;6.22;;
51578;SDS011;47998;53.242;6.386;2023-08-01T01:36:20;12.98;;;7.15;;
51578;SDS011;47998;53.242;6.386;2023-08-01T01:38:45;18.90;;;7.80;;
51578;SDS011;47998;53.242;6.386;2023-08-01T01:41:11;11.27;;;7.75;;
51578;SDS011;47998;53.242;6.386;2023-08-01T01:43:37;14.68;;;7.13;;
51578;SDS011;47998;53.242;6.386;2023-08-01T01:46:03;15.20;;;7.28;;
51578;SDS011;47998;53.242;6.386;2023-08-01T01:48:29;16.30;;;7.35;;
51578;SDS011;47998;53.242;6.386;2023-08-01T01:50:54;21.33;;;7.97;;
51578;SDS011;47998;53.242;6.386;2023-08-01T01:53:20;15.32;;;7.38;;
51578;SDS011;47998;53.242;6.386;2023-08-01T01:55:46;13.45;;;6.50;;
51578;SDS011;47998;53.242;6.386;2023-08-01T01:58:12;17.05;;;6.13;;
51578;SDS011;47998;53.242;6.386;2023-08-01T02:00:37;16.52;;;6.70;;
51578;SDS011;47998;53.242;6.386;2023-08-01T02:03:03;14.30;;;6.55;;
51578;SDS011;47998;53.242;6.386;2023-08-01T02:05:29;16.30;;;6.53;;
51578;SDS011;47998;53.242;6.386;2023-08-01T02:07:55;14.60;;;6.70;;
51578;SDS011;47998;53.242;6.386;2023-08-01T02:10:21;29.05;;;7.82;;
51578;SDS011;47998;53.242;6.386;2023-08-01T02:12:46;19.60;;;7.72;;
51578;SDS011;47998;53.242;6.386;2023-08-01T02:15:12;16.85;;;7.10;;
51578;SDS011;47998;53.242;6.386;2023-08-01T02:17:38;13.38;;;7.03;;
51578;SDS011;47998;53.242;6.386;2023-08-01T02:20:04;14.35;;;7.65;;
51578;SDS011;47998;53.242;6.386;2023-08-01T02:22:30;16.83;;;6.82;;
51578;SDS011;47998;53.242;6.386;2023-08-01T02:24:57;21.10;;;7.07;;
51578;SDS011;47998;53.242;6.386;2023-08-01T02:27:23;17.63;;;7.70;;
51578;SDS011;47998;53.242;6.386;2023-08-01T02:29:49;18.65;;;7.85;;
51578;SDS011;47998;53.242;6.386;2023-08-01T02:32:17;18.27;;;8.05;;
51578;SDS011;47998;53.242;6.386;2023-08-01T02:34:43;16.80;;;7.35;;
51578;SDS011;47998;53.242;6.386;2023-08-01T02:37:09;20.15;;;8.07;;
51578;SDS011;47998;53.242;6.386;2023-08-01T02:39:35;15.75;;;7.13;;
51578;SDS011;47998;53.242;6.386;2023-08-01T02:42:01;16.02;;;6.55;;
51578;SDS011;47998;53.242;6.386;2023-08-01T02:44:27;18.02;;;6.97;;
51578;SDS011;47998;53.242;6.386;2023-08-01T02:46:53;19.02;;;6.90;;
51578;SDS011;47998;53.242;6.386;2023-08-01T02:49:19;21.70;;;7.50;;
51578;SDS011;47998;53.242;6.386;2023-08-01T02:51:45;18.30;;;6.80;;
51578;SDS011;47998;53.242;6.386;2023-08-01T02:54:11;12.38;;;7.00;;
51578;SDS011;47998;53.242;6.386;2023-08-01T02:56:36;20.13;;;8.05;;
51578;SDS011;47998;53.242;6.386;2023-08-01T02:59:09;13.60;;;5.95;;
51578;SDS011;47998;53.242;6.386;2023-08-01T03:01:36;17.27;;;7.50;;
51578;SDS011;47998;53.242;6.386;2023-08-01T03:04:02;18.60;;;7.78;;
51578;SDS011;47998;53.242;6.386;2023-08-01T03:06:29;22.13;;;8.27;;
51578;SDS011;47998;53.242;6.386;2023-08-01T03:08:55;19.23;;;7.45;;
51578;SDS011;47998;53.242;6.386;2023-08-01T03:11:21;11.90;;;5.97;;
51578;SDS011;47998;53.242;6.386;2023-08-01T03:13:47;17.30;;;7.70;;
51578;SDS011;47998;53.242;6.386;2023-08-01T03:16:12;15.25;;;7.22;;
51578;SDS011;47998;53.242;6.386;2023-08-01T03:18:38;14.57;;;7.43;;
51578;SDS011;47998;53.242;6.386;2023-08-01T03:21:04;14.05;;;6.80;;
51578;SDS011;47998;53.242;6.386;2023-08-01T03:23:30;16.70;;;7.55;;
51578;SDS011;47998;53.242;6.386;2023-08-01T03:25:55;16.73;;;6.25;;
51578;SDS011;47998;53.242;6.386;2023-08-01T03:28:21;16.75;;;7.75;;
51578;SDS011;47998;53.242;6.386;2023-08-01T03:30:47;17.73;;;7.47;;
51578;SDS011;47998;53.242;6.386;2023-08-01T03:33:16;14.02;;;6.72;;
51578;SDS011;47998;53.242;6.386;2023-08-01T03:35:41;16.58;;;6.00;;
51578;SDS011;47998;53.242;6.386;2023-08-01T03:38:07;11.82;;;6.82;;
51578;SDS011;47998;53.242;6.386;2023-08-01T03:40:33;14.88;;;6.13;;
51578;SDS011;47998;53.242;6.386;2023-08-01T03:42:59;15.48;;;6.15;;
51578;SDS011;47998;53.242;6.386;2023-08-01T03:45:24;11.48;;;5.82;;
51578;SDS011;47998;53.242;6.386;2023-08-01T03:47:50;17.38;;;6.70;;
51578;SDS011;47998;53.242;6.386;2023-08-01T03:50:16;14.07;;;4.65;;
51578;SDS011;47998;53.242;6.386;2023-08-01T03:52:42;11.30;;;5.03;;
51578;SDS011;47998;53.242;6.386;2023-08-01T03:55:08;11.27;;;4.53;;
51578;SDS011;47998;53.242;6.386;2023-08-01T03:57:33;9.20;;;4.10;;
51578;SDS011;47998;53.242;6.386;2023-08-01T03:59:59;11.70;;;4.32;;
51578;SDS011;47998;53.242;6.386;2023-08-01T04:02:25;15.00;;;4.43;;
51578;SDS011;47998;53.242;6.386;2023-08-01T04:04:51;10.30;;;4.00;;
51578;SDS011;47998;53.242;6.386;2023-08-01T04:07:18;12.10;;;3.88;;
51578;SDS011;47998;53.242;6.386;2023-08-01T04:09:44;10.88;;;4.03;;
51578;SDS011;47998;53.242;6.386;2023-08-01T04:12:09;16.40;;;4.57;;
51578;SDS011;47998;53.242;6.386;2023-08-01T04:14:35;12.60;;;3.15;;
51578;SDS011;47998;53.242;6.386;2023-08-01T04:17:01;11.85;;;3.25;;
51578;SDS011;47998;53.242;6.386;2023-08-01T04:19:26;11.07;;;3.88;;
51578;SDS011;47998;53.242;6.386;2023-08-01T04:21:52;18.08;;;3.67;;
51578;SDS011;47998;53.242;6.386;2023-08-01T04:24:18;13.75;;;3.13;;
51578;SDS011;47998;53.242;6.386;2023-08-01T04:26:43;7.32;;;2.35;;
51578;SDS011;47998;53.242;6.386;2023-08-01T04:29:09;7.18;;;3.00;;
51578;SDS011;47998;53.242;6.386;2023-08-01T04:31:35;9.07;;;3.10;;
51578;SDS011;47998;53.242;6.386;2023-08-01T04:34:01;14.07;;;3.63;;
51578;SDS011;47998;53.242;6.386;2023-08-01T04:36:26;17.90;;;3.92;;
51578;SDS011;47998;53.242;6.386;2023-08-01T04:38:52;6.88;;;2.70;;
51578;SDS011;47998;53.242;6.386;2023-08-01T04:41:18;10.13;;;3.38;;
51578;SDS011;47998;53.242;6.386;2023-08-01T04:43:43;15.73;;;3.10;;
51578;SDS011;47998;53.242;6.386;2023-08-01T04:46:09;10.23;;;2.78;;
51578;SDS011;47998;53.242;6.386;2023-08-01T04:48:35;11.90;;;2.90;;
51578;SDS011;47998;53.242;6.386;2023-08-01T04:51:00;13.00;;;2.92;;
51578;SDS011;47998;53.242;6.386;2023-08-01T04:53:26;12.68;;;3.53;;
51578;SDS011;47998;53.242;6.386;2023-08-01T04:55:52;9.52;;;2.60;;
51578;SDS011;47998;53.242;6.386;2023-08-01T04:58:17;12.32;;;3.22;;
51578;SDS011;47998;53.242;6.386;2023-08-01T05:00:43;6.60;;;2.22;;
51578;SDS011;47998;53.242;6.386;2023-08-01T05:03:09;8.27;;;2.42;;
51578;SDS011;47998;53.242;6.386;2023-08-01T05:05:34;11.55;;;3.65;;
51578;SDS011;47998;53.242;6.386;2023-08-01T05:08:00;9.13;;;2.63;;
51578;SDS011;47998;53.242;6.386;2023-08-01T05:10:26;14.90;;;3.55;;
51578;SDS011;47998;53.242;6.386;2023-08-01T05:12:51;12.90;;;2.42;;
51578;SDS011;47998;53.242;6.386;2023-08-01T05:15:17;10.13;;;2.85;;
51578;SDS011;47998;53.242;6.386;2023-08-01T05:17:43;13.63;;;3.05;;
51578;SDS011;47998;53.242;6.386;2023-08-01T05:20:09;8.90;;;2.80;;
51578;SDS011;47998;53.242;6.386;2023-08-01T05:22:35;8.45;;;3.25;;
51578;SDS011;47998;53.242;6.386;2023-08-01T05:25:01;7.05;;;2.25;;
51578;SDS011;47998;53.242;6.386;2023-08-01T05:27:27;10.57;;;2.90;;
51578;SDS011;47998;53.242;6.386;2023-08-01T05:29:52;8.90;;;2.10;;
51578;SDS011;47998;53.242;6.386;2023-08-01T05:32:18;8.30;;;2.53;;
51578;SDS011;47998;53.242;6.386;2023-08-01T05:34:44;9.55;;;3.00;;
51578;SDS011;47998;53.242;6.386;2023-08-01T05:37:09;11.35;;;3.00;;
51578;SDS011;47998;53.242;6.386;2023-08-01T05:39:35;8.38;;;3.25;;
51578;SDS011;47998;53.242;6.386;2023-08-01T05:42:01;10.00;;;3.35;;
51578;SDS011;47998;53.242;6.386;2023-08-01T05:44:27;12.82;;;3.60;;
51578;SDS011;47998;53.242;6.386;2023-08-01T05:46:52;11.85;;;3.00;;
51578;SDS011;47998;53.242;6.386;2023-08-01T05:49:18;6.30;;;3.30;;
51578;SDS011;47998;53.242;6.386;2023-08-01T05:51:44;10.57;;;3.60;;
51578;SDS011;47998;53.242;6.386;2023-08-01T05:54:09;6.80;;;3.13;;
51578;SDS011;47998;53.242;6.386;2023-08-01T05:56:35;7.25;;;3.20;;
51578;SDS011;47998;53.242;6.386;2023-08-01T05:59:01;4.75;;;2.33;;
51578;SDS011;47998;53.242;6.386;2023-08-01T06:01:27;7.15;;;2.60;;
51578;SDS011;47998;53.242;6.386;2023-08-01T06:03:52;6.50;;;2.30;;
51578;SDS011;47998;53.242;6.386;2023-08-01T06:06:18;7.30;;;2.60;;
51578;SDS011;47998;53.242;6.386;2023-08-01T06:08:44;5.80;;;2.53;;
51578;SDS011;47998;53.242;6.386;2023-08-01T06:11:09;7.30;;;3.10;;
51578;SDS011;47998;53.242;6.386;2023-08-01T06:13:35;9.80;;;2.75;;
51578;SDS011;47998;53.242;6.386;2023-08-01T06:16:01;6.10;;;3.20;;
51578;SDS011;47998;53.242;6.386;2023-08-01T06:18:26;5.80;;;1.90;;
51578;SDS011;47998;53.242;6.386;2023-08-01T06:20:52;7.47;;;2.00;;
51578;SDS011;47998;53.242;6.386;2023-08-01T06:23:18;6.03;;;1.85;;
51578;SDS011;47998;53.242;6.386;2023-08-01T06:25:44;5.47;;;2.03;;
51578;SDS011;47998;53.242;6.386;2023-08-01T06:28:09;3.80;;;1.60;;
51578;SDS011;47998;53.242;6.386;2023-08-01T06:30:35;4.25;;;1.63;;
51578;SDS011;47998;53.242;6.386;2023-08-01T06:33:01;4.70;;;1.90;;
51578;SDS011;47998;53.242;6.386;2023-08-01T06:35:26;5.53;;;1.63;;
51578;SDS011;47998;53.242;6.386;2023-08-01T06:37:52;5.82;;;1.80;;
51578;SDS011;47998;53.242;6.386;2023-08-01T06:40:18;3.20;;;1.48;;
51578;SDS011;47998;53.242;6.386;2023-08-01T06:42:44;4.53;;;1.27;;
51578;SDS011;47998;53.242;6.386;2023-08-01T06:45:09;3.63;;;1.67;;
51578;SDS011;47998;53.242;6.386;2023-08-01T06:47:35;4.47;;;1.52;;
51578;SDS011;47998;53.242;6.386;2023-08-01T06:50:01;3.75;;;1.00;;
51578;SDS011;47998;53.242;6.386;2023-08-01T06:52:26;4.93;;;1.00;;
51578;SDS011;47998;53.242;6.386;2023-08-01T06:54:52;4.60;;;1.05;;
51578;SDS011;47998;53.242;6.386;2023-08-01T06:57:18;3.53;;;0.90;;
51578;SDS011;47998;53.242;6.386;2023-08-01T06:59:43;4.15;;;1.38;;
51578;SDS011;47998;53.242;6.386;2023-08-01T07:02:09;6.13;;;1.10;;
51578;SDS011;47998;53.242;6.386;2023-08-01T07:04:36;5.25;;;0.82;;
51578;SDS011;47998;53.242;6.386;2023-08-01T07:07:03;4.03;;;1.00;;
51578;SDS011;47998;53.242;6.386;2023-08-01T07:09:28;3.95;;;0.82;;
51578;SDS011;47998;53.242;6.386;2023-08-01T07:11:54;5.47;;;0.80;;
51578;SDS011;47998;53.242;6.386;2023-08-01T07:14:20;5.93;;;1.40;;
51578;SDS011;47998;53.242;6.386;2023-08-01T07:16:45;7.95;;;1.20;;
51578;SDS011;47998;53.242;6.386;2023-08-01T07:19:11;5.63;;;1.08;;
51578;SDS011;47998;53.242;6.386;2023-08-01T07:21:37;9.10;;;1.65;;
51578;SDS011;47998;53.242;6.386;2023-08-01T07:24:02;5.70;;;1.52;;
51578;SDS011;47998;53.242;6.386;2023-08-01T07:26:29;7.28;;;1.10;;
51578;SDS011;47998;53.242;6.386;2023-08-01T07:28:55;7.32;;;1.35;;
51578;SDS011;47998;53.242;6.386;2023-08-01T07:31:21;8.30;;;1.67;;
51578;SDS011;47998;53.242;6.386;2023-08-01T07:33:47;7.70;;;1.05;;
51578;SDS011;47998;53.242;6.386;2023-08-01T07:36:12;8.10;;;1.65;;
51578;SDS011;47998;53.242;6.386;2023-08-01T07:38:38;7.80;;;1.23;;
51578;SDS011;47998;53.242;6.386;2023-08-01T07:41:04;7.47;;;1.15;;
51578;SDS011;47998;53.242;6.386;2023-08-01T07:43:32;8.45;;;1.33;;
51578;SDS011;47998;53.242;6.386;2023-08-01T07:45:58;8.77;;;1.92;;
51578;SDS011;47998;53.242;6.386;2023-08-01T07:48:25;6.15;;;1.67;;
51578;SDS011;47998;53.242;6.386;2023-08-01T07:50:51;7.03;;;1.30;;
51578;SDS011;47998;53.242;6.386;2023-08-01T07:53:17;6.13;;;1.63;;
51578;SDS011;47998;53.242;6.386;2023-08-01T07:55:42;3.97;;;0.88;;
51578;SDS011;47998;53.242;6.386;2023-08-01T07:58:08;5.47;;;1.50;;
51578;SDS011;47998;53.242;6.386;2023-08-01T08:00:34;7.10;;;0.90;;
51578;SDS011;47998;53.242;6.386;2023-08-01T08:03:01;4.93;;;0.82;;
51578;SDS011;47998;53.242;6.386;2023-08-01T08:05:26;6.60;;;1.35;;
51578;SDS011;47998;53.242;6.386;2023-08-01T08:07:52;7.25;;;1.25;;
51578;SDS011;47998;53.242;6.386;2023-08-01T08:10:18;5.97;;;0.93;;
51578;SDS011;47998;53.242;6.386;2023-08-01T08:12:44;7.95;;;1.40;;
51578;SDS011;47998;53.242;6.386;2023-08-01T08:15:09;6.70;;;1.10;;
51578;SDS011;47998;53.242;6.386;2023-08-01T08:17:35;3.25;;;0.95;;
51578;SDS011;47998;53.242;6.386;2023-08-01T08:20:02;3.15;;;0.60;;
51578;SDS011;47998;53.242;6.386;2023-08-01T08:22:28;5.65;;;0.85;;
51578;SDS011;47998;53.242;6.386;2023-08-01T08:24:54;5.80;;;0.93;;
51578;SDS011;47998;53.242;6.386;2023-08-01T08:27:20;3.55;;;0.80;;
51578;SDS011;47998;53.242;6.386;2023-08-01T08:29:45;3.42;;;1.08;;
51578;SDS011;47998;53.242;6.386;2023-08-01T08:32:11;5.10;;;0.93;;
51578;SDS011;47998;53.242;6.386;2023-08-01T08:34:37;4.55;;;1.13;;
51578;SDS011;47998;53.242;6.386;2023-08-01T08:37:04;5.47;;;1.33;;
51578;SDS011;47998;53.242;6.386;2023-08-01T08:39:30;5.78;;;1.45;;
51578;SDS011;47998;53.242;6.386;2023-08-01T08:41:56;4.07;;;1.27;;
51578;SDS011;47998;53.242;6.386;2023-08-01T08:44:22;6.10;;;1.83;;
51578;SDS011;47998;53.242;6.386;2023-08-01T08:46:55;9.18;;;1.70;;
51578;SDS011;47998;53.242;6.386;2023-08-01T08:49:27;3.70;;;1.38;;
51578;SDS011;47998;53.242;6.386;2023-08-01T08:51:54;4.30;;;1.23;;
51578;SDS011;47998;53.242;6.386;2023-08-01T08:54:19;5.30;;;1.60;;
51578;SDS011;47998;53.242;6.386;2023-08-01T08:56:46;6.43;;;1.48;;
51578;SDS011;47998;53.242;6.386;2023-08-01T08:59:12;5.82;;;1.55;;
51578;SDS011;47998;53.242;6.386;2023-08-01T09:01:38;6.47;;;2.00;;
51578;SDS011;47998;53.242;6.386;2023-08-01T09:04:05;7.05;;;1.42;;
51578;SDS011;47998;53.242;6.386;2023-08-01T09:06:34;6.65;;;1.40;;
51578;SDS011;47998;53.242;6.386;2023-08-01T09:09:09;7.82;;;1.40;;
51578;SDS011;47998;53.242;6.386;2023-08-01T09:11:50;8.77;;;1.98;;
51578;SDS011;47998;53.242;6.386;2023-08-01T09:14:17;6.60;;;1.45;;
51578;SDS011;47998;53.242;6.386;2023-08-01T09:16:43;5.03;;;0.90;;
51578;SDS011;47998;53.242;6.386;2023-08-01T09:19:15;3.17;;;0.70;;
51578;SDS011;47998;53.242;6.386;2023-08-01T09:21:45;2.53;;;0.93;;
51578;SDS011;47998;53.242;6.386;2023-08-01T09:24:13;2.95;;;0.85;;
51578;SDS011;47998;53.242;6.386;2023-08-01T09:26:40;2.22;;;0.30;;
51578;SDS011;47998;53.242;6.386;2023-08-01T09:29:07;1.70;;;0.60;;
51578;SDS011;47998;53.242;6.386;2023-08-01T09:31:34;3.90;;;0.50;;
51578;SDS011;47998;53.242;6.386;2023-08-01T09:34:01;7.00;;;0.82;;
51578;SDS011;47998;53.242;6.386;2023-08-01T09:36:32;6.30;;;1.33;;
51578;SDS011;47998;53.242;6.386;2023-08-01T09:38:58;2.53;;;0.55;;
51578;SDS011;47998;53.242;6.386;2023-08-01T09:41:25;4.43;;;0.57;;
51578;SDS011;47998;53.242;6.386;2023-08-01T09:43:51;6.78;;;0.98;;
51578;SDS011;47998;53.242;6.386;2023-08-01T09:46:17;8.23;;;1.75;;
51578;SDS011;47998;53.242;6.386;2023-08-01T09:48:43;4.07;;;1.20;;
51578;SDS011;47998;53.242;6.386;2023-08-01T09:51:10;8.65;;;1.20;;
51578;SDS011;47998;53.242;6.386;2023-08-01T09:53:47;7.35;;;1.50;;
51578;SDS011;47998;53.242;6.386;2023-08-01T09:56:15;5.78;;;1.52;;
51578;SDS011;47998;53.242;6.386;2023-08-01T09:58:47;4.68;;;1.60;;
51578;SDS011;47998;53.242;6.386;2023-08-01T10:01:15;3.65;;;0.80;;
51578;SDS011;47998;53.242;6.386;2023-08-01T10:03:48;5.93;;;1.30;;
51578;SDS011;47998;53.242;6.386;2023-08-01T10:06:19;7.03;;;1.30;;
51578;SDS011;47998;53.242;6.386;2023-08-01T10:08:46;4.00;;;0.82;;
51578;SDS011;47998;53.242;6.386;2023-08-01T10:11:22;2.60;;;0.47;;
51578;SDS011;47998;53.242;6.386;2023-08-01T10:13:48;1.00;;;0.50;;
51578;SDS011;47998;53.242;6.386;2023-08-01T10:16:14;4.57;;;1.38;;
51578;SDS011;47998;53.242;6.386;2023-08-01T10:18:41;2.63;;;0.68;;
51578;SDS011;47998;53.242;6.386;2023-08-01T10:21:14;5.50;;;0.77;;
51578;SDS011;47998;53.242;6.386;2023-08-01T10:23:42;6.13;;;0.73;;
51578;SDS011;47998;53.242;6.386;2023-08-01T10:26:10;3.47;;;1.00;;
51578;SDS011;47998;53.242;6.386;2023-08-01T10:28:37;3.22;;;1.13;;
51578;SDS011;47998;53.242;6.386;2023-08-01T10:31:14;4.97;;;1.10;;
51578;SDS011;47998;53.242;6.386;2023-08-01T10:33:46;6.93;;;1.13;;
51578;SDS011;47998;53.242;6.386;2023-08-01T10:36:20;5.55;;;1.05;;
51578;SDS011;47998;53.242;6.386;2023-08-01T10:38:57;1.92;;;0.90;;
51578;SDS011;47998;53.242;6.386;2023-08-01T10:41:33;5.28;;;1.05;;
51578;SDS011;47998;53.242;6.386;2023-08-01T10:46:59;4.22;;;0.80;;
51578;SDS011;47998;53.242;6.386;2023-08-01T10:49:36;2.97;;;0.60;;
51578;SDS011;47998;53.242;6.386;2023-08-01T10:52:25;2.90;;;0.52;;
51578;SDS011;47998;53.242;6.386;2023-08-01T10:54:58;5.20;;;0.77;;
51578;SDS011;47998;53.242;6.386;2023-08-01T10:57:24;5.82;;;0.90;;
51578;SDS011;47998;53.242;6.386;2023-08-01T10:59:53;3.90;;;0.60;;
51578;SDS011;47998;53.242;6.386;2023-08-01T11:02:21;5.53;;;1.00;;
51578;SDS011;47998;53.242;6.386;2023-08-01T11:04:58;3.15;;;0.50;;
51578;SDS011;47998;53.242;6.386;2023-08-01T11:07:25;2.95;;;0.68;;
51578;SDS011;47998;53.242;6.386;2023-08-01T11:10:02;3.25;;;0.85;;
51578;SDS011;47998;53.242;6.386;2023-08-01T11:12:35;4.18;;;0.88;;
51578;SDS011;47998;53.242;6.386;2023-08-01T11:15:05;2.88;;;0.70;;
51578;SDS011;47998;53.242;6.386;2023-08-01T11:17:33;5.22;;;0.80;;
51578;SDS011;47998;53.242;6.386;2023-08-01T11:20:07;4.75;;;0.55;;
51578;SDS011;47998;53.242;6.386;2023-08-01T11:22:34;4.90;;;0.50;;
51578;SDS011;47998;53.242;6.386;2023-08-01T11:25:00;6.35;;;1.05;;
51578;SDS011;47998;53.242;6.386;2023-08-01T11:27:27;2.70;;;0.65;;
51578;SDS011;47998;53.242;6.386;2023-08-01T11:29:53;2.83;;;0.75;;
51578;SDS011;47998;53.242;6.386;2023-08-01T11:32:20;2.05;;;0.55;;
51578;SDS011;47998;53.242;6.386;2023-08-01T11:34:46;0.80;;;0.35;;
51578;SDS011;47998;53.242;6.386;2023-08-01T11:37:13;2.40;;;0.40;;
51578;SDS011;47998;53.242;6.386;2023-08-01T11:39:40;2.78;;;0.35;;
51578;SDS011;47998;53.242;6.386;2023-08-01T11:42:06;4.03;;;0.65;;
51578;SDS011;47998;53.242;6.386;2023-08-01T11:44:32;4.80;;;0.70;;
51578;SDS011;47998;53.242;6.386;2023-08-01T11:46:58;2.95;;;0.68;;
51578;SDS011;47998;53.242;6.386;2023-08-01T11:49:23;1.90;;;0.38;;
51578;SDS011;47998;53.242;6.386;2023-08-01T11:51:51;4.13;;;0.80;;
51578;SDS011;47998;53.242;6.386;2023-08-01T11:54:16;3.63;;;0.60;;
51578;SDS011;47998;53.242;6.386;2023-08-01T11:56:42;2.13;;;0.38;;
51578;SDS011;47998;53.242;6.386;2023-08-01T11:59:15;5.18;;;0.60;;
51578;SDS011;47998;53.242;6.386;2023-08-01T12:01:42;3.15;;;0.57;;
51578;SDS011;47998;53.242;6.386;2023-08-01T12:04:12;3.17;;;0.65;;
51578;SDS011;47998;53.242;6.386;2023-08-01T12:06:49;4.00;;;0.80;;
51578;SDS011;47998;53.242;6.386;2023-08-01T12:09:14;4.45;;;0.77;;
51578;SDS011;47998;53.242;6.386;2023-08-01T12:11:40;3.95;;;0.73;;
51578;SDS011;47998;53.242;6.386;2023-08-01T12:14:10;5.82;;;1.58;;
51578;SDS011;47998;53.242;6.386;2023-08-01T12:19:07;2.88;;;0.82;;
51578;SDS011;47998;53.242;6.386;2023-08-01T12:21:34;3.33;;;1.05;;
51578;SDS011;47998;53.242;6.386;2023-08-01T12:24:00;6.30;;;1.40;;
51578;SDS011;47998;53.242;6.386;2023-08-01T12:26:26;7.18;;;0.90;;
51578;SDS011;47998;53.242;6.386;2023-08-01T12:28:52;3.95;;;0.77;;
51578;SDS011;47998;53.242;6.386;2023-08-01T12:31:19;2.67;;;0.60;;
51578;SDS011;47998;53.242;6.386;2023-08-01T12:33:46;4.80;;;0.95;;
51578;SDS011;47998;53.242;6.386;2023-08-01T12:36:12;3.88;;;0.98;;
51578;SDS011;47998;53.242;6.386;2023-08-01T12:38:38;3.60;;;0.95;;
51578;SDS011;47998;53.242;6.386;2023-08-01T12:41:04;7.22;;;1.67;;
51578;SDS011;47998;53.242;6.386;2023-08-01T12:43:30;3.28;;;0.90;;
51578;SDS011;47998;53.242;6.386;2023-08-01T12:45:56;3.92;;;0.90;;
51578;SDS011;47998;53.242;6.386;2023-08-01T12:48:23;2.95;;;0.68;;
51578;SDS011;47998;53.242;6.386;2023-08-01T12:50:49;4.15;;;0.90;;
51578;SDS011;47998;53.242;6.386;2023-08-01T12:53:15;3.72;;;0.80;;
51578;SDS011;47998;53.242;6.386;2023-08-01T12:55:46;7.40;;;1.02;;
51578;SDS011;47998;53.242;6.386;2023-08-01T12:58:13;6.90;;;0.93;;
51578;SDS011;47998;53.242;6.386;2023-08-01T13:00:39;6.40;;;1.05;;
51578;SDS011;47998;53.242;6.386;2023-08-01T13:03:06;4.18;;;1.02;;
51578;SDS011;47998;53.242;6.386;2023-08-01T13:05:36;5.65;;;1.00;;
51578;SDS011;47998;53.242;6.386;2023-08-01T13:08:03;8.75;;;1.17;;
51578;SDS011;47998;53.242;6.386;2023-08-01T13:10:32;4.97;;;0.90;;
51578;SDS011;47998;53.242;6.386;2023-08-01T13:12:59;7.45;;;1.00;;
51578;SDS011;47998;53.242;6.386;2023-08-01T13:15:25;4.28;;;0.90;;
51578;SDS011;47998;53.242;6.386;2023-08-01T13:17:52;3.45;;;1.67;;
51578;SDS011;47998;53.242;6.386;2023-08-01T13:20:18;3.45;;;0.82;;
51578;SDS011;47998;53.242;6.386;2023-08-01T13:22:49;3.80;;;0.90;;
51578;SDS011;47998;53.242;6.386;2023-08-01T13:25:15;3.97;;;0.80;;
51578;SDS011;47998;53.242;6.386;2023-08-01T13:27:42;4.38;;;0.95;;
51578;SDS011;47998;53.242;6.386;2023-08-01T13:30:08;5.88;;;1.02;;
51578;SDS011;47998;53.242;6.386;2023-08-01T13:32:35;2.65;;;1.05;;
51578;SDS011;47998;53.242;6.386;2023-08-01T13:35:01;6.38;;;1.00;;
51578;SDS011;47998;53.242;6.386;2023-08-01T13:37:27;4.38;;;1.25;;
51578;SDS011;47998;53.242;6.386;2023-08-01T13:39:54;3.60;;;1.23;;
51578;SDS011;47998;53.242;6.386;2023-08-01T13:42:21;4.15;;;1.20;;
51578;SDS011;47998;53.242;6.386;2023-08-01T13:44:47;4.45;;;0.73;;
51578;SDS011;47998;53.242;6.386;2023-08-01T13:47:12;3.80;;;0.82;;
51578;SDS011;47998;53.242;6.386;2023-08-01T13:49:38;3.53;;;1.50;;
51578;SDS011;47998;53.242;6.386;2023-08-01T13:52:04;3.35;;;1.00;;
51578;SDS011;47998;53.242;6.386;2023-08-01T13:54:30;3.40;;;0.80;;
51578;SDS011;47998;53.242;6.386;2023-08-01T13:56:56;3.35;;;0.98;;
51578;SDS011;47998;53.242;6.386;2023-08-01T13:59:22;3.97;;;0.57;;
51578;SDS011;47998;53.242;6.386;2023-08-01T14:01:48;3.92;;;0.75;;
51578;SDS011;47998;53.242;6.386;2023-08-01T14:04:14;5.55;;;0.90;;
51578;SDS011;47998;53.242;6.386;2023-08-01T14:06:40;3.90;;;0.98;;
51578;SDS011;47998;53.242;6.386;2023-08-01T14:09:09;4.53;;;0.88;;
51578;SDS011;47998;53.242;6.386;2023-08-01T14:11:35;4.07;;;0.70;;
51578;SDS011;47998;53.242;6.386;2023-08-01T14:14:02;3.90;;;0.98;;
51578;SDS011;47998;53.242;6.386;2023-08-01T14:16:28;6.15;;;1.05;;
51578;SDS011;47998;53.242;6.386;2023-08-01T14:18:54;2.78;;;0.80;;
51578;SDS011;47998;53.242;6.386;2023-08-01T14:21:19;3.90;;;0.90;;
51578;SDS011;47998;53.242;6.386;2023-08-01T14:23:45;4.65;;;0.85;;
51578;SDS011;47998;53.242;6.386;2023-08-01T14:26:11;3.15;;;1.05;;
51578;SDS011;47998;53.242;6.386;2023-08-01T14:28:37;9.07;;;2.15;;
51578;SDS011;47998;53.242;6.386;2023-08-01T14:31:03;4.82;;;1.60;;
51578;SDS011;47998;53.242;6.386;2023-08-01T14:33:29;5.30;;;1.27;;
51578;SDS011;47998;53.242;6.386;2023-08-01T14:35:55;7.88;;;1.83;;
51578;SDS011;47998;53.242;6.386;2023-08-01T14:38:22;5.80;;;1.27;;
51578;SDS011;47998;53.242;6.386;2023-08-01T14:40:47;3.70;;;1.05;;
51578;SDS011;47998;53.242;6.386;2023-08-01T14:43:14;5.78;;;1.30;;
51578;SDS011;47998;53.242;6.386;2023-08-01T14:45:40;4.03;;;1.13;;
51578;SDS011;47998;53.242;6.386;2023-08-01T14:48:06;3.85;;;1.02;;